createdAt,value
2022-11-16T00:02:06.815Z,99537.97
2022-11-16T00:04:33.433Z,99539.38
2022-11-16T00:07:02.668Z,99536.28
2022-11-16T00:09:31.913Z,99534.41
2022-11-16T00:12:05.084Z,99537.13
2022-11-16T00:14:36.351Z,99532.34
2022-11-16T00:17:03.999Z,99537.34
2022-11-16T00:19:30.973Z,99534.66
2022-11-16T00:21:57.734Z,99535.66
2022-11-16T00:24:24.406Z,99540.06
2022-11-16T00:26:53.042Z,99539.00
2022-11-16T00:29:22.383Z,99540.06
2022-11-16T00:31:48.967Z,99540.69
2022-11-16T00:34:15.557Z,99540.44
2022-11-16T00:36:42.208Z,99545.47
2022-11-16T00:39:14.377Z,99539.22
2022-11-16T00:41:41.847Z,99543.59
2022-11-16T00:44:09.003Z,99538.81
2022-11-16T00:46:35.433Z,99543.41
2022-11-16T00:49:01.982Z,99540.06
2022-11-16T00:51:28.504Z,99538.81
2022-11-16T00:53:54.925Z,99538.81
2022-11-16T00:56:21.411Z,99526.78
2022-11-16T00:58:47.881Z,99520.31
2022-11-16T01:01:14.744Z,99513.66
2022-11-16T01:03:41.263Z,99508.47
2022-11-16T01:06:10.651Z,99520.50
2022-11-16T01:08:38.785Z,99521.31
2022-11-16T01:11:25.344Z,99525.72
2022-11-16T01:13:52.660Z,99522.63
2022-11-16T01:16:21.138Z,99523.00
2022-11-16T01:18:49.088Z,99525.50
2022-11-16T01:21:15.934Z,99518.22
2022-11-16T01:23:42.540Z,99510.94
2022-11-16T01:26:09.267Z,99510.94
2022-11-16T01:28:36.177Z,99503.63
2022-11-16T01:31:02.793Z,99495.53
2022-11-16T01:33:30.179Z,99487.03
2022-11-16T01:35:56.570Z,99485.38
2022-11-16T01:38:27.126Z,99491.38
2022-11-16T01:40:55.920Z,99487.44
2022-11-16T01:43:25.190Z,99490.78
2022-11-16T01:45:52.260Z,99493.28
2022-11-16T01:48:27.098Z,99496.19
2022-11-16T01:50:56.689Z,99490.38
2022-11-16T01:53:24.203Z,99498.22
2022-11-16T01:55:50.868Z,99484.94
2022-11-16T01:58:20.917Z,99493.50
2022-11-16T02:00:49.099Z,99501.19
2022-11-16T02:03:20.345Z,99483.72
2022-11-16T02:06:04.884Z,99488.31
2022-11-16T02:09:07.127Z,99487.03
2022-11-16T02:11:50.004Z,99475.38
2022-11-16T02:14:25.968Z,99479.56
2022-11-16T02:17:21.267Z,99475.22
2022-11-16T02:20:12.512Z,99472.28
2022-11-16T02:23:00.832Z,99472.28
2022-11-16T02:26:07.240Z,99469.81
2022-11-16T02:28:45.721Z,99459.63
2022-11-16T02:31:24.637Z,99469.59
2022-11-16T02:33:54.122Z,99462.53
2022-11-16T02:36:24.279Z,99463.09
2022-11-16T02:38:58.079Z,99467.94
2022-11-16T02:41:28.553Z,99469.56
2022-11-16T02:44:02.818Z,99472.50
2022-11-16T02:46:37.820Z,99467.28
2022-11-16T02:49:09.696Z,99460.63
2022-11-16T02:51:37.564Z,99457.94
2022-11-16T02:54:08.532Z,99467.09
2022-11-16T02:57:04.274Z,99471.69
2022-11-16T02:59:39.391Z,99459.38
2022-11-16T03:02:26.856Z,99462.53
2022-11-16T03:05:07.908Z,99465.00
2022-11-16T03:07:46.262Z,99462.09
2022-11-16T03:10:34.483Z,99458.16
2022-11-16T03:13:03.743Z,99452.97
2022-11-16T03:15:30.585Z,99456.28
2022-11-16T03:17:59.427Z,99463.56
2022-11-16T03:20:29.730Z,99467.94
2022-11-16T03:23:03.326Z,99468.56
2022-11-16T03:25:34.246Z,99461.31
2022-11-16T03:28:10.066Z,99468.19
2022-11-16T03:31:02.972Z,99460.88
2022-11-16T03:33:34.007Z,99463.41
2022-11-16T03:36:09.805Z,99480.00
2022-11-16T03:38:40.026Z,99477.09
2022-11-16T03:41:08.757Z,99477.69
2022-11-16T03:43:37.493Z,99477.22
2022-11-16T03:46:04.778Z,99485.94
2022-11-16T03:48:36.044Z,99475.97
2022-11-16T03:51:04.279Z,99474.66
2022-11-16T03:53:30.766Z,99481.53
2022-11-16T03:55:57.290Z,99482.78
2022-11-16T03:58:23.724Z,99485.25
2022-11-16T04:00:50.188Z,99491.25
2022-11-16T04:03:16.721Z,99496.03
2022-11-16T04:06:01.743Z,99490.84
2022-11-16T04:08:46.561Z,99492.88
2022-11-16T04:11:34.223Z,99495.81
2022-11-16T04:14:19.641Z,99495.81
2022-11-16T04:17:04.459Z,99497.47
2022-11-16T04:19:56.790Z,99504.88
2022-11-16T04:22:49.727Z,99508.22
2022-11-16T04:25:23.049Z,99499.34
2022-11-16T04:28:08.175Z,99504.03
2022-11-16T04:30:54.777Z,99503.63
2022-11-16T04:33:39.877Z,99503.63
2022-11-16T04:36:25.698Z,99510.44
2022-11-16T04:38:52.141Z,99506.72
2022-11-16T04:41:37.192Z,99499.00
2022-11-16T04:44:03.676Z,99506.47
2022-11-16T04:46:48.397Z,99516.59
2022-11-16T04:49:14.823Z,99514.31
2022-11-16T04:51:41.242Z,99512.03
2022-11-16T04:54:07.637Z,99513.91
2022-11-16T04:56:34.064Z,99514.50
2022-11-16T04:59:00.491Z,99520.94
2022-11-16T05:01:45.807Z,99531.53
2022-11-16T05:04:12.445Z,99525.13
2022-11-16T05:06:38.954Z,99526.72
2022-11-16T05:09:05.479Z,99532.50
2022-11-16T05:11:31.893Z,99527.94
2022-11-16T05:13:58.442Z,99536.44
2022-11-16T05:16:24.981Z,99534.75
2022-11-16T05:19:15.644Z,99537.19
2022-11-16T05:21:42.061Z,99542.25
2022-11-16T05:24:27.358Z,99543.22
2022-11-16T05:26:53.766Z,99550.94
2022-11-16T05:29:21.670Z,99540.78
2022-11-16T05:31:48.197Z,99545.75
2022-11-16T05:34:14.652Z,99539.72
2022-11-16T05:36:41.181Z,99539.97
2022-11-16T05:39:07.613Z,99553.75
2022-11-16T05:41:35.356Z,99547.41
2022-11-16T05:44:01.762Z,99555.13
2022-11-16T05:46:28.228Z,99550.81
2022-11-16T05:48:54.835Z,99559.00
2022-11-16T05:51:21.504Z,99564.31
2022-11-16T05:53:49.453Z,99568.03
2022-11-16T05:56:16.533Z,99573.19
2022-11-16T05:58:44.048Z,99567.97
2022-11-16T06:01:10.559Z,99564.25
2022-11-16T06:03:37.193Z,99562.97
2022-11-16T06:06:04.978Z,99558.63
2022-11-16T06:08:31.848Z,99561.88
2022-11-16T06:11:07.098Z,99546.03
2022-11-16T06:13:33.795Z,99551.66
2022-11-16T06:16:01.556Z,99563.19
2022-11-16T06:18:27.990Z,99561.09
2022-11-16T06:20:54.727Z,99555.47
2022-11-16T06:23:21.686Z,99559.78
2022-11-16T06:25:52.953Z,99557.00
2022-11-16T06:28:19.455Z,99565.28
2022-11-16T06:30:45.966Z,99573.13
2022-11-16T06:33:12.867Z,99578.94
2022-11-16T06:35:39.271Z,99583.66
2022-11-16T06:38:05.992Z,99587.09
2022-11-16T06:40:33.149Z,99587.66
2022-11-16T06:42:59.701Z,99592.97
2022-11-16T06:45:27.131Z,99584.22
2022-11-16T06:47:53.566Z,99583.84
2022-11-16T06:50:20.226Z,99593.16
2022-11-16T06:52:48.037Z,99594.25
2022-11-16T06:55:15.480Z,99595.75
2022-11-16T06:57:42.359Z,99601.16
2022-11-16T07:00:12.220Z,99602.44
2022-11-16T07:02:39.462Z,99607.03
2022-11-16T07:05:07.039Z,99604.22
2022-11-16T07:07:33.671Z,99609.41
2022-11-16T07:10:00.126Z,99614.72
2022-11-16T07:12:27.336Z,99619.94
2022-11-16T07:14:53.739Z,99621.63
2022-11-16T07:17:21.415Z,99619.00
2022-11-16T07:19:47.867Z,99619.56
2022-11-16T07:22:14.287Z,99620.84
2022-11-16T07:24:40.697Z,99624.31
2022-11-16T07:27:08.311Z,99629.88
2022-11-16T07:29:34.817Z,99634.50
2022-11-16T07:32:01.453Z,99628.09
2022-11-16T07:34:27.880Z,99642.41
2022-11-16T07:36:54.300Z,99642.13
2022-11-16T07:39:21.887Z,99647.31
2022-11-16T07:41:50.366Z,99650.75
2022-11-16T07:44:16.786Z,99648.28
2022-11-16T07:46:47.857Z,99655.88
2022-11-16T07:49:16.472Z,99655.69
2022-11-16T07:51:43.226Z,99666.75
2022-11-16T07:54:16.357Z,99670.09
2022-11-16T07:56:44.078Z,99669.53
2022-11-16T07:59:10.617Z,99674.03
2022-11-16T08:01:37.099Z,99675.75
2022-11-16T08:04:03.685Z,99677.16
2022-11-16T08:06:31.579Z,99683.69
2022-11-16T08:08:59.275Z,99682.84
2022-11-16T08:11:26.220Z,99689.66
2022-11-16T08:13:52.753Z,99683.63
2022-11-16T08:16:22.054Z,99693.59
2022-11-16T08:18:48.824Z,99690.06
2022-11-16T08:21:16.977Z,99694.50
2022-11-16T08:23:44.980Z,99696.28
2022-11-16T08:26:17.846Z,99693.28
2022-11-16T08:28:46.691Z,99692.38
2022-11-16T08:31:25.990Z,99691.44
2022-11-16T08:33:52.565Z,99694.78
2022-11-16T08:36:19.371Z,99704.94
2022-11-16T08:38:50.387Z,99696.22
2022-11-16T08:41:17.544Z,99701.53
2022-11-16T08:43:46.470Z,99701.97
2022-11-16T08:46:13.486Z,99703.06
2022-11-16T08:48:40.132Z,99702.78
2022-11-16T08:51:18.463Z,99704.19
2022-11-16T08:53:48.605Z,99694.13
2022-11-16T08:56:17.911Z,99699.53
2022-11-16T08:58:46.885Z,99706.59
2022-11-16T09:01:19.321Z,99692.28
2022-11-16T09:03:46.174Z,99691.88
2022-11-16T09:06:12.970Z,99687.88
2022-11-16T09:08:41.149Z,99680.16
2022-11-16T09:11:09.370Z,99684.13
2022-11-16T09:13:36.380Z,99684.28
2022-11-16T09:16:03.964Z,99682.09
2022-11-16T09:18:31.367Z,99684.94
2022-11-16T09:20:58.464Z,99693.66
2022-11-16T09:23:25.937Z,99677.72
2022-11-16T09:25:54.382Z,99688.41
2022-11-16T09:28:22.276Z,99679.31
2022-11-16T09:30:50.974Z,99679.88
2022-11-16T09:33:18.146Z,99684.28
2022-11-16T09:35:44.908Z,99681.88
2022-11-16T09:38:14.853Z,99686.25
2022-11-16T09:40:47.442Z,99680.72
2022-11-16T09:43:51.003Z,99683.38
2022-11-16T09:46:32.524Z,99689.00
2022-11-16T09:49:02.637Z,99695.16
2022-11-16T09:51:33.787Z,99674.91
2022-11-16T09:54:13.277Z,99689.56
2022-11-16T09:56:42.398Z,99705.00
2022-11-16T09:59:12.232Z,99699.88
2022-11-16T10:01:50.322Z,99701.69
2022-11-16T10:04:36.844Z,99709.66
2022-11-16T10:07:08.098Z,99717.47
2022-11-16T10:09:36.070Z,99706.44
2022-11-16T10:12:08.659Z,99714.81
2022-11-16T10:14:51.767Z,99719.53
2022-11-16T10:17:38.508Z,99720.44
2022-11-16T10:20:10.702Z,99716.28
2022-11-16T10:23:22.099Z,99724.28
2022-11-16T10:25:58.863Z,99731.97
2022-11-16T10:28:53.054Z,99724.09
2022-11-16T10:31:27.377Z,99721.66
2022-11-16T10:33:56.870Z,99731.84
2022-11-16T10:36:27.382Z,99716.22
2022-11-16T10:38:59.357Z,99714.53
2022-11-16T10:41:37.501Z,99721.22
2022-11-16T10:44:31.854Z,99716.06
2022-11-16T10:47:04.391Z,99725.22
2022-11-16T10:49:44.743Z,99731.84
2022-11-16T10:52:11.261Z,99727.28
2022-11-16T10:54:42.844Z,99717.66
2022-11-16T10:57:14.057Z,99705.41
2022-11-16T10:59:49.947Z,99720.19
2022-11-16T11:02:34.839Z,99715.19
2022-11-16T11:05:01.820Z,99709.00
2022-11-16T11:07:32.138Z,99711.44
2022-11-16T11:09:58.754Z,99705.06
2022-11-16T11:12:38.633Z,99710.69
2022-11-16T11:15:10.997Z,99714.16
2022-11-16T11:17:40.145Z,99707.94
2022-11-16T11:20:17.233Z,99707.59
2022-11-16T11:23:00.545Z,99699.16
2022-11-16T11:25:29.751Z,99699.53
2022-11-16T11:28:06.498Z,99689.47
2022-11-16T11:30:34.543Z,99690.53
2022-11-16T11:33:01.403Z,99677.41
2022-11-16T11:35:32.183Z,99677.03
2022-11-16T11:38:07.763Z,99667.75
2022-11-16T11:40:34.928Z,99668.44
2022-11-16T11:43:06.026Z,99671.63
2022-11-16T11:45:56.720Z,99666.59
2022-11-16T11:48:43.077Z,99671.38
2022-11-16T11:51:31.780Z,99677.00
2022-11-16T11:54:21.070Z,99685.56
2022-11-16T11:56:47.627Z,99683.16
2022-11-16T11:59:20.168Z,99687.25
2022-11-16T12:02:20.250Z,99672.53
2022-11-16T12:05:05.726Z,99672.72
2022-11-16T12:07:50.506Z,99679.97
2022-11-16T12:10:49.322Z,99678.94
2022-11-16T12:13:44.872Z,99684.28
2022-11-16T12:16:36.761Z,99685.22
2022-11-16T12:19:21.611Z,99677.66
2022-11-16T12:22:12.236Z,99684.56
2022-11-16T12:24:49.098Z,99684.50
2022-11-16T12:27:33.025Z,99679.22
2022-11-16T12:30:18.360Z,99679.38
2022-11-16T12:32:47.664Z,99669.91
2022-11-16T12:35:53.948Z,99656.84
2022-11-16T12:38:38.545Z,99651.19
2022-11-16T12:41:16.717Z,99660.28
2022-11-16T12:44:00.027Z,99643.72
2022-11-16T12:46:47.864Z,99638.09
2022-11-16T12:49:27.588Z,99635.31
2022-11-16T12:52:29.246Z,99633.91
2022-11-16T12:55:25.401Z,99628.09
2022-11-16T12:57:59.450Z,99629.56
2022-11-16T13:00:28.704Z,99634.66
2022-11-16T13:03:00.619Z,99621.59
2022-11-16T13:05:43.478Z,99629.19
2022-11-16T13:08:26.483Z,99647.13
2022-11-16T13:11:09.288Z,99617.09
2022-11-16T13:13:37.508Z,99619.06
2022-11-16T13:16:06.482Z,99625.94
2022-11-16T13:18:35.769Z,99615.66
2022-11-16T13:21:38.072Z,99603.59
2022-11-16T13:24:28.347Z,99615.50
2022-11-16T13:27:21.139Z,99613.56
2022-11-16T13:29:53.713Z,99608.06
2022-11-16T13:32:32.346Z,99614.97
2022-11-16T13:35:00.205Z,99616.88
2022-11-16T13:37:38.961Z,99615.09
2022-11-16T13:40:05.517Z,99619.09
2022-11-16T13:42:44.968Z,99619.69
2022-11-16T13:45:20.723Z,99621.06
2022-11-16T13:47:55.746Z,99618.44
2022-11-16T13:50:37.463Z,99612.22
2022-11-16T13:56:07.227Z,99616.94
2022-11-16T13:58:37.456Z,99610.09
2022-11-16T14:01:10.645Z,99607.13
2022-11-16T14:03:39.008Z,99594.34
2022-11-16T14:06:26.735Z,99599.78
2022-11-16T14:08:58.389Z,99599.81
2022-11-16T14:11:40.776Z,99603.53
2022-11-16T14:14:12.881Z,99598.44
2022-11-16T14:16:50.082Z,99599.91
2022-11-16T14:19:44.790Z,99591.34
2022-11-16T14:22:26.440Z,99585.50
2022-11-16T14:25:02.011Z,99596.69
2022-11-16T14:27:38.653Z,99591.06
2022-11-16T14:30:05.178Z,99584.00
2022-11-16T14:32:41.259Z,99578.91
2022-11-16T14:35:39.777Z,99577.84
2022-11-16T14:38:24.535Z,99574.28
2022-11-16T14:40:59.092Z,99572.22
2022-11-16T14:43:43.094Z,99562.56
2022-11-16T14:46:20.653Z,99563.66
2022-11-16T14:48:47.597Z,99571.53
2022-11-16T14:51:21.106Z,99562.34
2022-11-16T14:53:59.666Z,99557.38
2022-11-16T14:56:26.511Z,99549.34
2022-11-16T14:59:01.500Z,99552.22
2022-11-16T15:01:31.395Z,99541.22
2022-11-16T15:04:07.841Z,99539.72
2022-11-16T15:06:43.771Z,99536.97
2022-11-16T15:09:19.765Z,99540.47
2022-11-16T15:12:08.440Z,99535.69
2022-11-16T15:14:41.683Z,99532.59
2022-11-16T15:17:09.753Z,99532.34
2022-11-16T15:19:36.372Z,99530.50
2022-11-16T15:22:04.593Z,99524.94
2022-11-16T15:24:33.695Z,99514.44
2022-11-16T15:27:11.169Z,99510.88
2022-11-16T15:29:38.415Z,99508.81
2022-11-16T15:32:06.997Z,99506.66
2022-11-16T15:34:33.519Z,99514.53
2022-11-16T15:36:59.990Z,99515.09
2022-11-16T15:39:32.274Z,99514.13
2022-11-16T15:42:03.801Z,99509.72
2022-11-16T15:44:31.916Z,99507.88
2022-11-16T15:46:59.422Z,99503.47
2022-11-16T15:49:32.333Z,99492.81
2022-11-16T15:51:59.556Z,99484.69
2022-11-16T15:54:27.612Z,99485.16
2022-11-16T15:56:58.288Z,99491.56
2022-11-16T15:59:34.296Z,99487.34
2022-11-16T16:02:00.860Z,99491.59
2022-11-16T16:04:28.938Z,99490.28
2022-11-16T16:06:58.009Z,99481.13
2022-11-16T16:09:24.710Z,99466.72
2022-11-16T16:11:52.526Z,99469.69
2022-11-16T16:14:28.620Z,99461.78
2022-11-16T16:16:58.188Z,99469.19
2022-11-16T16:19:36.400Z,99466.00
2022-11-16T16:22:04.852Z,99477.25
2022-11-16T16:24:45.890Z,99481.56
2022-11-16T16:27:15.518Z,99462.44
2022-11-16T16:29:42.314Z,99462.59
2022-11-16T16:32:14.455Z,99465.38
2022-11-16T16:34:42.422Z,99459.84
2022-11-16T16:37:12.915Z,99452.50
2022-11-16T16:39:39.914Z,99451.25
2022-11-16T16:42:16.687Z,99450.41
2022-11-16T16:44:44.813Z,99446.09
2022-11-16T16:47:11.922Z,99440.84
2022-11-16T16:49:38.350Z,99435.03
2022-11-16T16:52:06.350Z,99438.50
2022-11-16T16:54:33.424Z,99447.78
2022-11-16T16:57:01.453Z,99447.00
2022-11-16T16:59:30.166Z,99437.66
2022-11-16T17:01:57.935Z,99426.59
2022-11-16T17:04:25.272Z,99421.03
2022-11-16T17:06:53.325Z,99414.00
2022-11-16T17:09:20.443Z,99415.72
2022-11-16T17:11:47.636Z,99416.50
2022-11-16T17:14:14.167Z,99409.06
2022-11-16T17:16:40.677Z,99408.47
2022-11-16T17:19:07.097Z,99419.63
2022-11-16T17:21:33.546Z,99411.09
2022-11-16T17:24:00.025Z,99412.16
2022-11-16T17:26:29.355Z,99417.22
2022-11-16T17:28:57.031Z,99410.59
2022-11-16T17:31:24.896Z,99409.00
2022-11-16T17:33:51.546Z,99410.91
2022-11-16T17:36:18.380Z,99412.59
2022-11-16T17:38:45.288Z,99408.59
2022-11-16T17:41:14.237Z,99407.34
2022-11-16T17:43:42.023Z,99408.88
2022-11-16T17:46:20.029Z,99395.50
2022-11-16T17:48:47.511Z,99389.41
2022-11-16T17:51:20.106Z,99390.56
2022-11-16T17:53:46.851Z,99393.78
2022-11-16T17:56:15.338Z,99386.38
2022-11-16T17:58:41.910Z,99398.91
2022-11-16T18:01:08.859Z,99389.00
2022-11-16T18:03:36.661Z,99383.56
2022-11-16T18:06:04.901Z,99373.88
2022-11-16T18:08:33.169Z,99382.34
2022-11-16T18:11:10.478Z,99385.16
2022-11-16T18:13:37.982Z,99381.31
2022-11-16T18:16:16.648Z,99384.06
2022-11-16T18:18:44.601Z,99388.00
2022-11-16T18:21:17.216Z,99384.91
2022-11-16T18:23:46.544Z,99377.94
2022-11-16T18:26:15.332Z,99379.66
2022-11-16T18:28:44.431Z,99374.59
2022-11-16T18:31:13.579Z,99395.06
2022-11-16T18:33:40.191Z,99390.06
2022-11-16T18:36:07.714Z,99387.88
2022-11-16T18:38:34.896Z,99383.31
2022-11-16T18:41:07.558Z,99376.00
2022-11-16T18:43:34.861Z,99380.38
2022-11-16T18:46:01.608Z,99374.97
2022-11-16T18:48:28.350Z,99367.19
2022-11-16T18:51:02.467Z,99363.72
2022-11-16T18:53:30.547Z,99370.22
2022-11-16T18:55:58.297Z,99367.66
2022-11-16T18:58:55.192Z,99362.88
2022-11-16T19:01:15.543Z,99356.97
2022-11-16T19:03:43.211Z,99365.28
2022-11-16T19:06:10.702Z,99365.53
2022-11-16T19:08:38.578Z,99352.47
2022-11-16T19:11:10.224Z,99342.47
2022-11-16T19:13:37.130Z,99343.56
2022-11-16T19:16:04.053Z,99331.88
2022-11-16T19:18:30.597Z,99324.75
2022-11-16T19:21:08.632Z,99316.97
2022-11-16T19:23:39.776Z,99306.97
2022-11-16T19:26:06.832Z,99298.88
2022-11-16T19:28:37.873Z,99292.59
2022-11-16T19:31:31.897Z,99287.94
2022-11-16T19:34:00.601Z,99285.69
2022-11-16T19:36:28.426Z,99273.44
2022-11-16T19:38:55.598Z,99271.38
2022-11-16T19:41:22.781Z,99271.44
2022-11-16T19:43:57.042Z,99268.66
2022-11-16T19:46:24.752Z,99262.22
2022-11-16T19:48:51.561Z,99258.91
2022-11-16T19:51:21.615Z,99259.72
2022-11-16T19:53:48.633Z,99252.72
2022-11-16T19:56:18.136Z,99246.03
2022-11-16T19:58:45.146Z,99244.00
2022-11-16T20:01:17.828Z,99228.91
2022-11-16T20:03:45.460Z,99222.00
2022-11-16T20:06:16.898Z,99220.81
2022-11-16T20:08:47.885Z,99208.78
2022-11-16T20:11:20.538Z,99209.34
2022-11-16T20:13:48.370Z,99201.88
2022-11-16T20:16:16.245Z,99195.88
2022-11-16T20:18:44.180Z,99199.78
2022-11-16T20:21:23.158Z,99198.09
2022-11-16T20:23:51.649Z,99186.75
2022-11-16T20:26:19.865Z,99193.56
2022-11-16T20:28:46.425Z,99186.69
2022-11-16T20:31:14.862Z,99195.00
2022-11-16T20:33:41.888Z,99182.78
2022-11-16T20:36:11.167Z,99170.56
2022-11-16T20:38:39.171Z,99172.88
2022-11-16T20:41:19.539Z,99175.34
2022-11-16T20:43:47.398Z,99162.91
2022-11-16T20:46:16.794Z,99157.91
2022-11-16T20:48:44.251Z,99159.53
2022-11-16T20:51:19.400Z,99154.78
2022-11-16T20:53:47.651Z,99159.06
2022-11-16T20:56:15.499Z,99153.31
2022-11-16T20:58:42.241Z,99150.78
2022-11-16T21:01:15.062Z,99143.34
2022-11-16T21:03:42.582Z,99143.13
2022-11-16T21:06:09.003Z,99133.34
2022-11-16T21:08:36.540Z,99129.25
2022-11-16T21:11:09.988Z,99117.63
2022-11-16T21:13:54.912Z,99110.41
2022-11-16T21:16:21.335Z,99099.81
2022-11-16T21:18:47.738Z,99097.91
2022-11-16T21:21:14.766Z,99102.09
2022-11-16T21:23:45.022Z,99085.69
2022-11-16T21:26:13.749Z,99090.88
2022-11-16T21:28:41.547Z,99078.03
2022-11-16T21:31:10.673Z,99074.88
2022-11-16T21:33:37.696Z,99067.25
2022-11-16T21:36:06.372Z,99061.63
2022-11-16T21:38:34.151Z,99061.41
2022-11-16T21:41:01.018Z,99060.63
2022-11-16T21:43:28.165Z,99045.22
2022-11-16T21:46:01.994Z,99040.06
2022-11-16T21:48:28.576Z,99023.66
2022-11-16T21:51:01.517Z,99027.19
2022-11-16T21:53:28.256Z,99023.03
2022-11-16T21:55:54.634Z,99020.41
2022-11-16T21:58:21.552Z,99013.75
2022-11-16T22:00:47.993Z,99004.75
2022-11-16T22:03:15.353Z,99006.69
2022-11-16T22:06:00.422Z,98998.38
2022-11-16T22:08:26.830Z,98998.13
2022-11-16T22:10:53.434Z,98995.88
2022-11-16T22:13:20.600Z,98979.50
2022-11-16T22:15:46.996Z,98977.78
2022-11-16T22:18:13.535Z,98975.97
2022-11-16T22:20:40.272Z,98971.78
2022-11-16T22:23:06.696Z,98965.94
2022-11-16T22:25:33.202Z,98953.72
2022-11-16T22:28:19.714Z,98959.31
2022-11-16T22:30:51.366Z,98944.19
2022-11-16T22:33:18.472Z,98925.31
2022-11-16T22:35:47.055Z,98938.63
2022-11-16T22:38:13.436Z,98916.97
2022-11-16T22:40:39.861Z,98924.25
2022-11-16T22:43:06.334Z,98900.59
2022-11-16T22:45:32.791Z,98892.69
2022-11-16T22:47:59.172Z,98882.53
2022-11-16T22:50:25.768Z,98876.31
2022-11-16T22:52:52.179Z,98873.41
2022-11-16T22:55:18.612Z,98867.38
2022-11-16T22:57:45.112Z,98854.13
2022-11-16T23:00:13.629Z,98834.78
2022-11-16T23:02:40.221Z,98838.53
2022-11-16T23:05:07.002Z,98827.53
2022-11-16T23:07:33.478Z,98826.31
2022-11-16T23:09:59.944Z,98819.47
2022-11-16T23:12:44.830Z,98801.00
2022-11-16T23:15:31.230Z,98801.00
2022-11-16T23:17:58.187Z,98779.00
2022-11-16T23:20:42.989Z,98791.66
2022-11-16T23:23:37.908Z,98786.69
2022-11-16T23:26:29.185Z,98791.03
2022-11-16T23:28:55.630Z,98777.34
2022-11-16T23:31:22.228Z,98759.94
2022-11-16T23:33:48.757Z,98766.56
2022-11-16T23:36:15.350Z,98758.91
2022-11-16T23:38:41.812Z,98741.88
2022-11-16T23:41:27.130Z,98742.50
2022-11-16T23:43:59.313Z,98720.31
2022-11-16T23:46:31.639Z,98710.78
2022-11-16T23:48:58.729Z,98691.47
2022-11-16T23:51:25.335Z,98681.13
2022-11-16T23:53:52.981Z,98673.66
2022-11-16T23:56:23.372Z,98660.63
2022-11-16T23:58:50.143Z,98658.34
